sensor_id;sensor_type;location;lat;lon;timestamp;pressure;altitude;pressure_sealevel;temperature;humidity
12215;BME280;6170;42.206;24.142;2023-07-24T00:00:53;98847.19;;;22.94;56.35
12215;BME280;6170;42.206;24.142;2023-07-24T00:03:20;98839.69;;;23.14;56.14
12215;BME280;6170;42.206;24.142;2023-07-24T00:05:47;98829.25;;;23.21;55.88
12215;BME280;6170;42.206;24.142;2023-07-24T00:08:15;98827.63;;;23.20;56.91
12215;BME280;6170;42.206;24.142;2023-07-24T00:10:42;98830.56;;;23.29;56.48
12215;BME280;6170;42.206;24.142;2023-07-24T00:13:09;98815.16;;;23.04;56.43
12215;BME280;6170;42.206;24.142;2023-07-24T00:15:38;98829.66;;;23.05;57.10
12215;BME280;6170;42.206;24.142;2023-07-24T00:18:05;98839.88;;;23.28;55.34
12215;BME280;6170;42.206;24.142;2023-07-24T00:20:32;98827.91;;;23.19;56.96
12215;BME280;6170;42.206;24.142;2023-07-24T00:22:59;98829.03;;;23.13;57.09
12215;BME280;6170;42.206;24.142;2023-07-24T00:25:27;98833.47;;;23.04;56.73
12215;BME280;6170;42.206;24.142;2023-07-24T00:27:54;98825.97;;;23.19;56.52
12215;BME280;6170;42.206;24.142;2023-07-24T00:30:21;98824.06;;;23.20;55.50
12215;BME280;6170;42.206;24.142;2023-07-24T00:32:48;98827.13;;;23.13;56.48
12215;BME280;6170;42.206;24.142;2023-07-24T00:35:15;98826.72;;;22.91;56.81
12215;BME280;6170;42.206;24.142;2023-07-24T00:37:42;98828.28;;;22.97;55.39
12215;BME280;6170;42.206;24.142;2023-07-24T00:40:10;98825.97;;;22.65;56.49
12215;BME280;6170;42.206;24.142;2023-07-24T00:42:38;98831.72;;;22.74;56.47
12215;BME280;6170;42.206;24.142;2023-07-24T00:45:05;98826.25;;;22.69;56.92
12215;BME280;6170;42.206;24.142;2023-07-24T00:47:34;98823.00;;;22.57;57.63
12215;BME280;6170;42.206;24.142;2023-07-24T00:50:01;98836.31;;;22.83;57.68
12215;BME280;6170;42.206;24.142;2023-07-24T00:52:28;98807.97;;;22.69;57.97
12215;BME280;6170;42.206;24.142;2023-07-24T00:54:55;98829.44;;;22.91;58.02
12215;BME280;6170;42.206;24.142;2023-07-24T00:57:23;98833.50;;;22.94;58.41
12215;BME280;6170;42.206;24.142;2023-07-24T00:59:51;98835.38;;;23.03;58.30
12215;BME280;6170;42.206;24.142;2023-07-24T01:02:18;98830.88;;;22.78;58.70
12215;BME280;6170;42.206;24.142;2023-07-24T01:04:45;98853.41;;;23.04;59.29
12215;BME280;6170;42.206;24.142;2023-07-24T01:07:13;98842.06;;;22.77;59.44
12215;BME280;6170;42.206;24.142;2023-07-24T01:09:42;98844.22;;;22.80;59.37
12215;BME280;6170;42.206;24.142;2023-07-24T01:12:13;98843.13;;;22.86;59.51
12215;BME280;6170;42.206;24.142;2023-07-24T01:14:47;98830.41;;;22.46;59.74
12215;BME280;6170;42.206;24.142;2023-07-24T01:17:22;98856.56;;;22.72;59.90
12215;BME280;6170;42.206;24.142;2023-07-24T01:19:54;98855.81;;;22.52;59.67
12215;BME280;6170;42.206;24.142;2023-07-24T01:22:25;98863.44;;;22.50;60.42
12215;BME280;6170;42.206;24.142;2023-07-24T01:25:04;98889.66;;;22.40;60.33
12215;BME280;6170;42.206;24.142;2023-07-24T01:27:41;98856.16;;;22.15;60.54
12215;BME280;6170;42.206;24.142;2023-07-24T01:30:08;98860.78;;;22.24;60.99
12215;BME280;6170;42.206;24.142;2023-07-24T01:32:36;98872.75;;;22.44;61.12
12215;BME280;6170;42.206;24.142;2023-07-24T01:35:04;98877.31;;;22.63;61.13
12215;BME280;6170;42.206;24.142;2023-07-24T01:37:31;98878.16;;;22.59;60.10
12215;BME280;6170;42.206;24.142;2023-07-24T01:39:59;98861.59;;;21.64;62.90
12215;BME280;6170;42.206;24.142;2023-07-24T01:42:27;98894.28;;;21.34;63.75
12215;BME280;6170;42.206;24.142;2023-07-24T01:44:56;98879.06;;;21.53;63.45
12215;BME280;6170;42.206;24.142;2023-07-24T01:47:22;98869.53;;;21.50;63.22
12215;BME280;6170;42.206;24.142;2023-07-24T01:49:49;98888.31;;;21.52;63.78
12215;BME280;6170;42.206;24.142;2023-07-24T01:52:17;98886.09;;;21.29;64.31
12215;BME280;6170;42.206;24.142;2023-07-24T01:54:44;98888.31;;;21.37;63.90
12215;BME280;6170;42.206;24.142;2023-07-24T01:57:10;98896.19;;;21.33;64.23
12215;BME280;6170;42.206;24.142;2023-07-24T01:59:37;98888.53;;;21.25;64.71
12215;BME280;6170;42.206;24.142;2023-07-24T02:02:06;98935.72;;;21.31;65.63
12215;BME280;6170;42.206;24.142;2023-07-24T02:04:33;98889.78;;;20.92;65.88
12215;BME280;6170;42.206;24.142;2023-07-24T02:06:59;98899.34;;;21.05;66.23
12215;BME280;6170;42.206;24.142;2023-07-24T02:09:26;98889.53;;;21.04;66.88
12215;BME280;6170;42.206;24.142;2023-07-24T02:11:53;98900.00;;;21.32;67.04
12215;BME280;6170;42.206;24.142;2023-07-24T02:14:20;98858.56;;;21.25;66.90
12215;BME280;6170;42.206;24.142;2023-07-24T02:16:47;98880.66;;;21.39;66.93
12215;BME280;6170;42.206;24.142;2023-07-24T02:19:15;98894.53;;;21.27;67.59
12215;BME280;6170;42.206;24.142;2023-07-24T02:21:42;98857.31;;;20.86;67.25
12215;BME280;6170;42.206;24.142;2023-07-24T02:24:09;98885.97;;;20.98;68.65
12215;BME280;6170;42.206;24.142;2023-07-24T02:26:36;98870.44;;;20.89;67.75
12215;BME280;6170;42.206;24.142;2023-07-24T02:29:03;98907.81;;;21.08;68.20
12215;BME280;6170;42.206;24.142;2023-07-24T02:31:30;98909.81;;;21.23;67.59
12215;BME280;6170;42.206;24.142;2023-07-24T02:33:57;98910.06;;;21.22;66.66
12215;BME280;6170;42.206;24.142;2023-07-24T02:36:25;98918.31;;;21.42;65.03
12215;BME280;6170;42.206;24.142;2023-07-24T02:38:52;98920.78;;;21.54;64.20
12215;BME280;6170;42.206;24.142;2023-07-24T02:41:19;98927.31;;;21.52;64.53
12215;BME280;6170;42.206;24.142;2023-07-24T02:43:45;98895.09;;;21.34;64.54
12215;BME280;6170;42.206;24.142;2023-07-24T02:46:12;98908.19;;;21.32;66.26
12215;BME280;6170;42.206;24.142;2023-07-24T02:48:39;98905.75;;;21.36;66.37
12215;BME280;6170;42.206;24.142;2023-07-24T02:51:06;98918.84;;;21.49;66.28
12215;BME280;6170;42.206;24.142;2023-07-24T02:53:34;98918.84;;;21.49;66.73
12215;BME280;6170;42.206;24.142;2023-07-24T02:56:01;98937.91;;;21.39;67.30
12215;BME280;6170;42.206;24.142;2023-07-24T02:58:28;98888.53;;;21.15;67.33
12215;BME280;6170;42.206;24.142;2023-07-24T03:01:02;98909.44;;;21.04;67.74
12215;BME280;6170;42.206;24.142;2023-07-24T03:03:29;98981.03;;;21.57;67.26
12215;BME280;6170;42.206;24.142;2023-07-24T03:05:56;98907.03;;;21.13;67.99
12215;BME280;6170;42.206;24.142;2023-07-24T03:08:23;98886.47;;;20.85;66.69
12215;BME280;6170;42.206;24.142;2023-07-24T03:10:52;98914.81;;;20.84;67.78
12215;BME280;6170;42.206;24.142;2023-07-24T03:13:19;98908.00;;;20.87;67.50
12215;BME280;6170;42.206;24.142;2023-07-24T03:15:51;98919.59;;;20.67;68.20
12215;BME280;6170;42.206;24.142;2023-07-24T03:18:19;98912.25;;;20.68;68.07
12215;BME280;6170;42.206;24.142;2023-07-24T03:20:46;98904.09;;;20.26;68.70
12215;BME280;6170;42.206;24.142;2023-07-24T03:23:13;98882.75;;;20.07;68.88
12215;BME280;6170;42.206;24.142;2023-07-24T03:25:40;98919.44;;;20.42;69.20
12215;BME280;6170;42.206;24.142;2023-07-24T03:28:08;98908.25;;;20.33;69.88
12215;BME280;6170;42.206;24.142;2023-07-24T03:30:35;98910.53;;;20.14;71.02
12215;BME280;6170;42.206;24.142;2023-07-24T03:33:03;98947.31;;;20.59;70.82
12215;BME280;6170;42.206;24.142;2023-07-24T03:35:31;98917.75;;;20.31;70.06
12215;BME280;6170;42.206;24.142;2023-07-24T03:37:58;98923.44;;;20.29;69.18
12215;BME280;6170;42.206;24.142;2023-07-24T03:40:25;98920.97;;;20.28;68.69
12215;BME280;6170;42.206;24.142;2023-07-24T03:42:52;98906.66;;;20.42;69.14
12215;BME280;6170;42.206;24.142;2023-07-24T03:45:21;98906.38;;;20.39;69.08
12215;BME280;6170;42.206;24.142;2023-07-24T03:47:47;98898.78;;;20.46;68.33
12215;BME280;6170;42.206;24.142;2023-07-24T03:50:15;98880.03;;;20.49;68.12
12215;BME280;6170;42.206;24.142;2023-07-24T03:52:41;98912.31;;;20.78;68.14
12215;BME280;6170;42.206;24.142;2023-07-24T03:55:08;98896.53;;;20.33;67.97
12215;BME280;6170;42.206;24.142;2023-07-24T03:57:36;98924.09;;;20.88;66.69
12215;BME280;6170;42.206;24.142;2023-07-24T04:00:03;98903.69;;;21.01;66.02
12215;BME280;6170;42.206;24.142;2023-07-24T04:02:31;98968.44;;;21.41;65.89
12215;BME280;6170;42.206;24.142;2023-07-24T04:04:58;98965.50;;;21.63;65.35
12215;BME280;6170;42.206;24.142;2023-07-24T04:07:25;98907.66;;;21.40;64.96
12215;BME280;6170;42.206;24.142;2023-07-24T04:09:52;98920.47;;;21.45;65.74
12215;BME280;6170;42.206;24.142;2023-07-24T04:12:19;98932.25;;;21.71;64.97
12215;BME280;6170;42.206;24.142;2023-07-24T04:14:46;98913.75;;;22.03;65.49
12215;BME280;6170;42.206;24.142;2023-07-24T04:17:14;98906.91;;;22.11;64.59
12215;BME280;6170;42.206;24.142;2023-07-24T04:19:42;98922.69;;;22.49;64.55
12215;BME280;6170;42.206;24.142;2023-07-24T04:22:09;98908.22;;;22.49;65.28
12215;BME280;6170;42.206;24.142;2023-07-24T04:24:36;98921.84;;;22.79;64.04
12215;BME280;6170;42.206;24.142;2023-07-24T04:27:03;98985.78;;;23.52;63.60
12215;BME280;6170;42.206;24.142;2023-07-24T04:29:30;98926.13;;;23.59;62.75
12215;BME280;6170;42.206;24.142;2023-07-24T04:31:57;98925.19;;;23.74;62.19
12215;BME280;6170;42.206;24.142;2023-07-24T04:34:24;98964.06;;;24.10;61.68
12215;BME280;6170;42.206;24.142;2023-07-24T04:36:52;98927.50;;;24.30;60.89
12215;BME280;6170;42.206;24.142;2023-07-24T04:39:19;98928.59;;;24.34;60.64
12215;BME280;6170;42.206;24.142;2023-07-24T04:41:46;98931.34;;;24.57;59.33
12215;BME280;6170;42.206;24.142;2023-07-24T04:44:13;98929.97;;;24.84;59.28
12215;BME280;6170;42.206;24.142;2023-07-24T04:46:40;98883.81;;;24.96;58.25
12215;BME280;6170;42.206;24.142;2023-07-24T04:49:07;98922.69;;;25.22;58.85
12215;BME280;6170;42.206;24.142;2023-07-24T04:51:33;98923.81;;;24.97;59.70
12215;BME280;6170;42.206;24.142;2023-07-24T04:54:02;98888.19;;;25.16;58.73
12215;BME280;6170;42.206;24.142;2023-07-24T04:56:29;98927.72;;;25.57;58.82
12215;BME280;6170;42.206;24.142;2023-07-24T04:58:56;98927.03;;;25.84;57.55
12215;BME280;6170;42.206;24.142;2023-07-24T05:01:22;98926.28;;;26.29;58.59
12215;BME280;6170;42.206;24.142;2023-07-24T05:03:49;98926.53;;;26.47;57.21
12215;BME280;6170;42.206;24.142;2023-07-24T05:06:16;98923.63;;;26.70;56.41
12215;BME280;6170;42.206;24.142;2023-07-24T05:08:43;98938.84;;;26.95;55.46
12215;BME280;6170;42.206;24.142;2023-07-24T05:11:11;98908.03;;;26.66;56.11
12215;BME280;6170;42.206;24.142;2023-07-24T05:13:38;98937.00;;;27.04;56.74
12215;BME280;6170;42.206;24.142;2023-07-24T05:16:05;98937.28;;;27.44;56.26
12215;BME280;6170;42.206;24.142;2023-07-24T05:18:32;98927.56;;;27.46;54.86
12215;BME280;6170;42.206;24.142;2023-07-24T05:20:59;98924.59;;;27.70;55.61
12215;BME280;6170;42.206;24.142;2023-07-24T05:23:26;98934.03;;;28.13;54.24
12215;BME280;6170;42.206;24.142;2023-07-24T05:25:59;98918.19;;;28.19;52.47
12215;BME280;6170;42.206;24.142;2023-07-24T05:28:28;98940.56;;;28.71;51.97
12215;BME280;6170;42.206;24.142;2023-07-24T05:30:55;98925.03;;;27.86;53.98
12215;BME280;6170;42.206;24.142;2023-07-24T05:33:22;98918.00;;;28.46;52.67
12215;BME280;6170;42.206;24.142;2023-07-24T05:35:49;98902.00;;;28.04;53.70
12215;BME280;6170;42.206;24.142;2023-07-24T05:38:16;98923.44;;;28.91;52.14
12215;BME280;6170;42.206;24.142;2023-07-24T05:40:43;98928.44;;;28.80;52.11
12215;BME280;6170;42.206;24.142;2023-07-24T05:43:09;98925.41;;;28.37;52.38
12215;BME280;6170;42.206;24.142;2023-07-24T05:45:38;98926.16;;;28.51;54.67
12215;BME280;6170;42.206;24.142;2023-07-24T05:48:05;98914.38;;;28.68;53.82
12215;BME280;6170;42.206;24.142;2023-07-24T05:50:32;98924.88;;;28.04;53.93
12215;BME280;6170;42.206;24.142;2023-07-24T05:52:59;98874.97;;;27.61;53.92
12215;BME280;6170;42.206;24.142;2023-07-24T05:55:26;98919.88;;;28.90;54.25
12215;BME280;6170;42.206;24.142;2023-07-24T05:57:53;98898.56;;;28.74;52.68
12215;BME280;6170;42.206;24.142;2023-07-24T06:00:20;98916.94;;;28.56;52.91
12215;BME280;6170;42.206;24.142;2023-07-24T06:02:48;98908.84;;;28.59;52.48
12215;BME280;6170;42.206;24.142;2023-07-24T06:05:15;98908.53;;;28.61;54.55
12215;BME280;6170;42.206;24.142;2023-07-24T06:07:42;98903.97;;;29.44;53.20
12215;BME280;6170;42.206;24.142;2023-07-24T06:10:09;98909.84;;;29.77;52.99
12215;BME280;6170;42.206;24.142;2023-07-24T06:12:36;98912.28;;;29.78;53.60
12215;BME280;6170;42.206;24.142;2023-07-24T06:15:04;98902.22;;;30.00;52.14
12215;BME280;6170;42.206;24.142;2023-07-24T06:17:31;98902.31;;;30.29;50.93
12215;BME280;6170;42.206;24.142;2023-07-24T06:19:59;98901.56;;;30.03;50.81
12215;BME280;6170;42.206;24.142;2023-07-24T06:22:26;98900.22;;;30.26;49.46
12215;BME280;6170;42.206;24.142;2023-07-24T06:24:53;98836.53;;;30.14;49.76
12215;BME280;6170;42.206;24.142;2023-07-24T06:27:20;98893.75;;;29.70;50.57
12215;BME280;6170;42.206;24.142;2023-07-24T06:29:47;98877.66;;;29.38;50.92
12215;BME280;6170;42.206;24.142;2023-07-24T06:32:13;98889.28;;;29.26;51.20
12215;BME280;6170;42.206;24.142;2023-07-24T06:34:40;98900.66;;;30.37;51.70
12215;BME280;6170;42.206;24.142;2023-07-24T06:37:09;98893.41;;;30.15;52.50
12215;BME280;6170;42.206;24.142;2023-07-24T06:39:35;98887.06;;;30.06;51.56
12215;BME280;6170;42.206;24.142;2023-07-24T06:42:03;98887.84;;;29.29;51.10
12215;BME280;6170;42.206;24.142;2023-07-24T06:44:30;98883.47;;;28.40;53.07
12215;BME280;6170;42.206;24.142;2023-07-24T06:46:57;98884.69;;;28.96;52.66
12215;BME280;6170;42.206;24.142;2023-07-24T06:49:24;98929.25;;;28.81;53.89
12215;BME280;6170;42.206;24.142;2023-07-24T06:51:50;98881.25;;;29.38;50.46
12215;BME280;6170;42.206;24.142;2023-07-24T06:54:19;98865.31;;;29.87;51.24
12215;BME280;6170;42.206;24.142;2023-07-24T06:56:46;98875.13;;;30.57;49.85
12215;BME280;6170;42.206;24.142;2023-07-24T06:59:12;98886.38;;;31.19;51.34
12215;BME280;6170;42.206;24.142;2023-07-24T07:01:39;98878.66;;;31.75;48.06
12215;BME280;6170;42.206;24.142;2023-07-24T07:04:06;98880.13;;;31.93;49.21
12215;BME280;6170;42.206;24.142;2023-07-24T07:06:33;98890.41;;;32.13;47.28
12215;BME280;6170;42.206;24.142;2023-07-24T07:09:00;98879.59;;;30.70;48.92
12215;BME280;6170;42.206;24.142;2023-07-24T07:11:28;98874.81;;;30.32;49.77
12215;BME280;6170;42.206;24.142;2023-07-24T07:13:55;98877.03;;;31.03;48.58
12215;BME280;6170;42.206;24.142;2023-07-24T07:16:22;98863.19;;;30.65;49.49
12215;BME280;6170;42.206;24.142;2023-07-24T07:18:49;98877.81;;;29.84;50.25
12215;BME280;6170;42.206;24.142;2023-07-24T07:21:16;98873.53;;;31.14;48.78
12215;BME280;6170;42.206;24.142;2023-07-24T07:23:43;98857.63;;;30.27;50.05
12215;BME280;6170;42.206;24.142;2023-07-24T07:26:09;98852.94;;;30.65;48.72
12215;BME280;6170;42.206;24.142;2023-07-24T07:28:38;98867.69;;;30.31;49.54
12215;BME280;6170;42.206;24.142;2023-07-24T07:31:05;98852.03;;;31.20;47.71
12215;BME280;6170;42.206;24.142;2023-07-24T07:33:31;98856.34;;;31.50;49.06
12215;BME280;6170;42.206;24.142;2023-07-24T07:35:58;98862.94;;;31.99;47.52
12215;BME280;6170;42.206;24.142;2023-07-24T07:38:25;98853.66;;;31.42;47.29
12215;BME280;6170;42.206;24.142;2023-07-24T07:40:52;98871.78;;;31.60;46.13
12215;BME280;6170;42.206;24.142;2023-07-24T07:43:19;98854.31;;;31.18;45.92
12215;BME280;6170;42.206;24.142;2023-07-24T07:45:48;98846.69;;;31.36;44.51
12215;BME280;6170;42.206;24.142;2023-07-24T07:48:15;98864.91;;;31.78;44.66
12215;BME280;6170;42.206;24.142;2023-07-24T07:50:41;98848.47;;;32.27;46.16
12215;BME280;6170;42.206;24.142;2023-07-24T07:53:08;98842.69;;;32.20;44.28
12215;BME280;6170;42.206;24.142;2023-07-24T07:55:35;98840.91;;;33.21;44.88
12215;BME280;6170;42.206;24.142;2023-07-24T07:58:02;98836.84;;;33.06;45.36
12215;BME280;6170;42.206;24.142;2023-07-24T08:00:29;98899.78;;;33.38;45.89
12215;BME280;6170;42.206;24.142;2023-07-24T08:02:57;98836.25;;;33.77;44.41
12215;BME280;6170;42.206;24.142;2023-07-24T08:05:24;98837.44;;;33.24;44.44
12215;BME280;6170;42.206;24.142;2023-07-24T08:07:51;98851.31;;;33.12;42.84
12215;BME280;6170;42.206;24.142;2023-07-24T08:10:18;98836.84;;;33.30;41.76
12215;BME280;6170;42.206;24.142;2023-07-24T08:12:45;98831.38;;;32.25;43.98
12215;BME280;6170;42.206;24.142;2023-07-24T08:15:12;98835.47;;;31.53;43.49
12215;BME280;6170;42.206;24.142;2023-07-24T08:17:39;98831.59;;;32.20;43.78
12215;BME280;6170;42.206;24.142;2023-07-24T08:20:07;98856.53;;;32.89;43.06
12215;BME280;6170;42.206;24.142;2023-07-24T08:22:34;98836.44;;;33.56;42.66
12215;BME280;6170;42.206;24.142;2023-07-24T08:25:02;98827.06;;;32.96;44.16
12215;BME280;6170;42.206;24.142;2023-07-24T08:27:29;98840.31;;;32.54;44.17
12215;BME280;6170;42.206;24.142;2023-07-24T08:29:57;98841.97;;;32.68;43.92
12215;BME280;6170;42.206;24.142;2023-07-24T08:32:24;98831.66;;;32.56;43.34
12215;BME280;6170;42.206;24.142;2023-07-24T08:34:51;98841.09;;;31.98;44.70
12215;BME280;6170;42.206;24.142;2023-07-24T08:37:19;98760.13;;;31.80;44.88
12215;BME280;6170;42.206;24.142;2023-07-24T08:39:46;98830.53;;;33.58;44.41
12215;BME280;6170;42.206;24.142;2023-07-24T08:42:13;98789.72;;;32.70;41.88
12215;BME280;6170;42.206;24.142;2023-07-24T08:44:41;98820.44;;;32.89;44.50
12215;BME280;6170;42.206;24.142;2023-07-24T08:47:10;98827.47;;;33.35;43.78
12215;BME280;6170;42.206;24.142;2023-07-24T08:49:38;98811.06;;;32.45;44.62
12215;BME280;6170;42.206;24.142;2023-07-24T08:52:07;98768.88;;;32.15;43.03
12215;BME280;6170;42.206;24.142;2023-07-24T08:54:37;98798.47;;;31.90;44.27
12215;BME280;6170;42.206;24.142;2023-07-24T08:57:06;98792.81;;;32.80;43.96
12215;BME280;6170;42.206;24.142;2023-07-24T08:59:33;98782.84;;;33.16;42.07
12215;BME280;6170;42.206;24.142;2023-07-24T09:02:00;98861.22;;;33.49;42.34
12215;BME280;6170;42.206;24.142;2023-07-24T09:04:28;98800.69;;;33.55;42.44
12215;BME280;6170;42.206;24.142;2023-07-24T09:06:56;98788.53;;;34.03;43.22
12215;BME280;6170;42.206;24.142;2023-07-24T09:09:23;98790.81;;;34.44;41.81
12215;BME280;6170;42.206;24.142;2023-07-24T09:11:52;98814.34;;;34.47;41.34
12215;BME280;6170;42.206;24.142;2023-07-24T09:14:23;98784.91;;;33.87;43.27
12215;BME280;6170;42.206;24.142;2023-07-24T09:17:01;98843.41;;;33.90;40.92
12215;BME280;6170;42.206;24.142;2023-07-24T09:19:28;98781.53;;;34.09;40.65
12215;BME280;6170;42.206;24.142;2023-07-24T09:21:55;98839.56;;;34.10;41.42
12215;BME280;6170;42.206;24.142;2023-07-24T09:24:22;98775.53;;;34.07;43.35
12215;BME280;6170;42.206;24.142;2023-07-24T09:26:52;98766.94;;;34.27;43.81
12215;BME280;6170;42.206;24.142;2023-07-24T09:29:19;98771.34;;;33.69;43.65
12215;BME280;6170;42.206;24.142;2023-07-24T09:31:46;98759.22;;;34.37;41.22
12215;BME280;6170;42.206;24.142;2023-07-24T09:34:15;98719.00;;;34.50;41.73
12215;BME280;6170;42.206;24.142;2023-07-24T09:36:42;98819.34;;;34.88;40.36
12215;BME280;6170;42.206;24.142;2023-07-24T09:39:10;98751.28;;;33.92;41.97
12215;BME280;6170;42.206;24.142;2023-07-24T09:41:38;98773.84;;;32.58;42.16
12215;BME280;6170;42.206;24.142;2023-07-24T09:44:07;98803.44;;;32.54;44.13
12215;BME280;6170;42.206;24.142;2023-07-24T09:46:35;98734.41;;;32.89;42.53
12215;BME280;6170;42.206;24.142;2023-07-24T09:49:02;98709.56;;;32.92;42.14
12215;BME280;6170;42.206;24.142;2023-07-24T09:51:29;98747.38;;;32.85;43.21
12215;BME280;6170;42.206;24.142;2023-07-24T09:54:01;98724.28;;;32.44;43.20
12215;BME280;6170;42.206;24.142;2023-07-24T09:56:31;98723.66;;;33.55;42.64
12215;BME280;6170;42.206;24.142;2023-07-24T09:59:00;98728.34;;;34.26;43.21
12215;BME280;6170;42.206;24.142;2023-07-24T10:01:31;98711.34;;;34.78;41.31
12215;BME280;6170;42.206;24.142;2023-07-24T10:03:59;98716.09;;;34.62;39.61
12215;BME280;6170;42.206;24.142;2023-07-24T10:06:27;98712.38;;;33.76;42.05
12215;BME280;6170;42.206;24.142;2023-07-24T10:08:56;98747.44;;;34.59;40.18
12215;BME280;6170;42.206;24.142;2023-07-24T10:11:23;98668.47;;;33.54;41.34
12215;BME280;6170;42.206;24.142;2023-07-24T10:13:51;98700.72;;;34.17;40.16
12215;BME280;6170;42.206;24.142;2023-07-24T10:16:19;98705.66;;;34.24;41.75
12215;BME280;6170;42.206;24.142;2023-07-24T10:18:48;98697.81;;;34.61;40.77
12215;BME280;6170;42.206;24.142;2023-07-24T10:21:15;98687.97;;;34.83;37.84
12215;BME280;6170;42.206;24.142;2023-07-24T10:23:43;98688.34;;;34.81;41.03
12215;BME280;6170;42.206;24.142;2023-07-24T10:26:12;98685.81;;;34.41;38.76
12215;BME280;6170;42.206;24.142;2023-07-24T10:28:40;98657.50;;;34.20;38.94
12215;BME280;6170;42.206;24.142;2023-07-24T10:31:18;98648.50;;;33.95;38.57
12215;BME280;6170;42.206;24.142;2023-07-24T10:33:45;98636.50;;;34.22;38.83
12215;BME280;6170;42.206;24.142;2023-07-24T10:36:17;98639.91;;;34.66;40.29
12215;BME280;6170;42.206;24.142;2023-07-24T10:38:45;98638.53;;;34.10;39.71
12215;BME280;6170;42.206;24.142;2023-07-24T10:41:13;98645.09;;;34.52;39.75
12215;BME280;6170;42.206;24.142;2023-07-24T10:43:41;98631.41;;;33.93;38.36
12215;BME280;6170;42.206;24.142;2023-07-24T10:46:08;98619.31;;;33.86;38.29
12215;BME280;6170;42.206;24.142;2023-07-24T10:48:36;98628.97;;;34.07;38.56
12215;BME280;6170;42.206;24.142;2023-07-24T10:51:07;98602.06;;;34.46;37.98
12215;BME280;6170;42.206;24.142;2023-07-24T10:53:36;98610.16;;;33.85;37.36
12215;BME280;6170;42.206;24.142;2023-07-24T10:56:04;98601.84;;;34.55;38.16
12215;BME280;6170;42.206;24.142;2023-07-24T10:58:31;98616.56;;;34.55;37.92
12215;BME280;6170;42.206;24.142;2023-07-24T11:00:58;98592.47;;;34.44;39.53
12215;BME280;6170;42.206;24.142;2023-07-24T11:03:26;98610.41;;;34.46;36.12
12215;BME280;6170;42.206;24.142;2023-07-24T11:05:54;98597.84;;;33.86;36.81
12215;BME280;6170;42.206;24.142;2023-07-24T11:08:21;98594.34;;;34.40;37.70
12215;BME280;6170;42.206;24.142;2023-07-24T11:10:51;98582.84;;;34.22;37.12
12215;BME280;6170;42.206;24.142;2023-07-24T11:13:20;98593.53;;;34.39;37.22
12215;BME280;6170;42.206;24.142;2023-07-24T11:15:47;98589.28;;;34.99;37.05
12215;BME280;6170;42.206;24.142;2023-07-24T11:18:15;98595.56;;;35.15;37.71
12215;BME280;6170;42.206;24.142;2023-07-24T11:20:47;98591.22;;;35.37;35.91
12215;BME280;6170;42.206;24.142;2023-07-24T11:23:14;98579.94;;;35.53;35.25
12215;BME280;6170;42.206;24.142;2023-07-24T11:25:41;98591.97;;;35.34;34.61
12215;BME280;6170;42.206;24.142;2023-07-24T11:28:11;98582.16;;;35.21;35.77
12215;BME280;6170;42.206;24.142;2023-07-24T11:30:38;98591.47;;;35.09;35.54
12215;BME280;6170;42.206;24.142;2023-07-24T11:33:07;98509.38;;;34.23;36.04
12215;BME280;6170;42.206;24.142;2023-07-24T11:35:35;98574.63;;;34.83;34.37
12215;BME280;6170;42.206;24.142;2023-07-24T11:38:04;98576.41;;;35.33;34.64
12215;BME280;6170;42.206;24.142;2023-07-24T11:40:32;98580.34;;;35.09;34.31
12215;BME280;6170;42.206;24.142;2023-07-24T11:43:01;98558.78;;;35.06;34.68
12215;BME280;6170;42.206;24.142;2023-07-24T11:45:30;98557.66;;;35.53;34.21
12215;BME280;6170;42.206;24.142;2023-07-24T11:47:57;98540.84;;;35.98;33.48
12215;BME280;6170;42.206;24.142;2023-07-24T11:50:24;98529.88;;;34.92;35.47
12215;BME280;6170;42.206;24.142;2023-07-24T11:52:51;98533.66;;;35.22;35.73
12215;BME280;6170;42.206;24.142;2023-07-24T11:55:23;98543.47;;;35.39;35.75
12215;BME280;6170;42.206;24.142;2023-07-24T11:57:56;98483.72;;;34.52;34.23
12215;BME280;6170;42.206;24.142;2023-07-24T12:00:24;98522.47;;;35.68;35.62
12215;BME280;6170;42.206;24.142;2023-07-24T12:02:52;98528.13;;;35.26;35.76
12215;BME280;6170;42.206;24.142;2023-07-24T12:05:20;98524.16;;;35.27;35.39
12215;BME280;6170;42.206;24.142;2023-07-24T12:07:47;98539.31;;;35.52;36.88
12215;BME280;6170;42.206;24.142;2023-07-24T12:10:25;98513.19;;;35.37;35.15
12215;BME280;6170;42.206;24.142;2023-07-24T12:12:54;98528.66;;;35.12;33.31
12215;BME280;6170;42.206;24.142;2023-07-24T12:15:21;98517.84;;;35.30;35.36
12215;BME280;6170;42.206;24.142;2023-07-24T12:17:48;98515.44;;;35.77;34.61
12215;BME280;6170;42.206;24.142;2023-07-24T12:20:16;98515.34;;;35.47;36.48
12215;BME280;6170;42.206;24.142;2023-07-24T12:22:43;98521.72;;;35.97;35.47
12215;BME280;6170;42.206;24.142;2023-07-24T12:25:10;98506.22;;;35.73;34.37
12215;BME280;6170;42.206;24.142;2023-07-24T12:27:37;98453.78;;;35.56;35.72
12215;BME280;6170;42.206;24.142;2023-07-24T12:30:06;98508.66;;;35.75;32.62
12215;BME280;6170;42.206;24.142;2023-07-24T12:32:33;98491.59;;;35.80;32.89
12215;BME280;6170;42.206;24.142;2023-07-24T12:35:00;98500.56;;;35.43;33.52
12215;BME280;6170;42.206;24.142;2023-07-24T12:37:29;98490.13;;;35.63;34.88
12215;BME280;6170;42.206;24.142;2023-07-24T12:39:56;98562.50;;;36.31;34.12
12215;BME280;6170;42.206;24.142;2023-07-24T12:42:23;98474.41;;;35.74;34.05
12215;BME280;6170;42.206;24.142;2023-07-24T12:44:50;98483.28;;;35.57;35.51
12215;BME280;6170;42.206;24.142;2023-07-24T12:47:16;98493.00;;;35.44;33.59
12215;BME280;6170;42.206;24.142;2023-07-24T12:49:43;98488.53;;;35.62;35.46
12215;BME280;6170;42.206;24.142;2023-07-24T12:52:10;98535.19;;;35.65;33.13
12215;BME280;6170;42.206;24.142;2023-07-24T12:54:39;98490.53;;;35.88;32.42
12215;BME280;6170;42.206;24.142;2023-07-24T12:57:06;98533.47;;;35.15;33.96
12215;BME280;6170;42.206;24.142;2023-07-24T12:59:32;98470.84;;;35.77;32.42
12215;BME280;6170;42.206;24.142;2023-07-24T13:01:59;98472.25;;;35.64;34.00